Time;durP1;ratioP1;P1;durP2;ratioP2;P2;SDS_P1;SDS_P2;PMS_P1;PMS_P2;Temp;Humidity;BMP_temperature;BMP_pressure;BME280_temperature;BME280_humidity;BME280_pressure;Samples;Min_cycle;Max_cycle;Signal;HPM_P1;HPM_P2
2021/06/28 00:00:30;;;;;;;7.45;4.93;;;;;;;16.18;81.25;101391.75;5033758;28;20060;-80
2021/06/28 00:02:55;;;;;;;;;;;;;;;16.12;82.23;101383.19;5034154;28;20026;-80
2021/06/28 00:05:21;;;;;;;9.43;4.80;;;;;;;16.07;82.69;101388.06;5050440;28;19975;-79
2021/06/28 00:07:46;;;;;;;9.02;5.68;;;;;;;16.03;81.95;101391.97;5016136;28;20021;-76
2021/06/28 00:10:15;;;;;;;8.70;5.03;;;;;;;15.95;82.96;101393.38;5027078;28;20492;-80
2021/06/28 00:12:40;;;;;;;8.23;5.15;;;;;;;15.92;82.97;101398.16;5036824;28;20087;-80
2021/06/28 00:15:11;;;;;;;7.22;4.88;;;;;;;15.89;83.01;101390.25;5053469;28;20029;-78
2021/06/28 00:17:36;;;;;;;9.10;5.15;;;;;;;15.82;83.24;101386.22;5036876;28;20032;-78
2021/06/28 00:20:04;;;;;;;8.23;5.63;;;;;;;15.90;83.36;101387.44;5036757;28;20384;-79
2021/06/28 00:22:30;;;;;;;8.25;5.25;;;;;;;15.91;84.35;101393.72;5036852;28;20020;-79
2021/06/28 00:24:56;;;;;;;8.23;5.63;;;;;;;15.87;83.67;101394.91;5053354;28;20025;-79
2021/06/28 00:27:23;;;;;;;7.73;5.57;;;;;;;15.82;84.62;101395.22;5053592;28;20028;-80
2021/06/28 00:29:49;;;;;;;9.60;6.28;;;;;;;15.76;83.60;101391.13;5036777;28;20264;-80
2021/06/28 00:32:15;;;;;;;8.27;5.65;;;;;;;15.72;84.29;101395.00;5053072;28;20484;-80
2021/06/28 00:34:40;;;;;;;7.90;5.75;;;;;;;15.71;85.23;101404.13;5018649;28;20044;-79
2021/06/28 00:37:05;;;;;;;8.80;5.38;;;;;;;15.62;84.80;101399.31;5032917;28;20048;-78
2021/06/28 00:39:31;;;;;;;9.13;6.28;;;;;;;15.55;85.60;101393.44;5033101;28;20033;-76
2021/06/28 00:41:56;;;;;;;10.25;6.45;;;;;;;15.60;85.83;101403.97;5033043;28;20021;-76
2021/06/28 00:44:21;;;;;;;8.45;6.10;;;;;;;15.51;85.54;101400.03;5016270;28;20021;-79
2021/06/28 00:46:47;;;;;;;8.40;5.85;;;;;;;15.46;86.53;101404.06;5032964;28;20477;-77
2021/06/28 00:49:12;;;;;;;9.43;6.10;;;;;;;15.58;86.32;101397.78;5032841;28;20025;-76
2021/06/28 00:51:37;;;;;;;12.13;6.68;;;;;;;15.64;85.67;101397.38;5033179;28;20033;-76
2021/06/28 00:54:03;;;;;;;9.88;6.50;;;;;;;15.60;85.61;101403.97;5051244;28;20146;-79
2021/06/28 00:56:28;;;;;;;7.97;5.95;;;;;;;15.60;85.46;101395.84;5056061;28;20467;-79
2021/06/28 00:58:55;;;;;;;10.25;6.93;;;;;;;15.64;85.77;101400.06;5072298;28;20021;-78
2021/06/28 01:01:20;;;;;;;9.32;6.93;;;;;;;15.57;85.71;101402.34;5016128;28;20040;-79
2021/06/28 01:03:46;;;;;;;7.55;5.80;;;;;;;15.59;85.47;101407.63;5016257;28;20093;-77
2021/06/28 01:06:14;;;;;;;11.32;6.60;;;;;;;15.51;86.42;101393.75;5036901;28;20391;-79
2021/06/28 01:08:39;;;;;;;11.30;6.95;;;;;;;15.52;86.90;101399.06;5072549;28;20020;-76
2021/06/28 01:11:05;;;;;;;9.30;6.80;;;;;;;15.51;85.94;101391.91;5072565;28;20492;-79
2021/06/28 01:13:31;;;;;;;11.63;6.70;;;;;;;15.58;86.28;101408.63;5056132;28;20139;-75
2021/06/28 01:15:57;;;;;;;11.18;7.00;;;;;;;15.59;86.97;101410.34;5041091;28;20440;-76
2021/06/28 01:18:22;;;;;;;10.50;6.80;;;;;;;15.52;86.02;101407.19;5035300;28;20052;-78
2021/06/28 01:20:50;;;;;;;12.15;7.90;;;;;;;15.47;86.90;101406.63;5052447;28;20025;-78
2021/06/28 01:23:22;;;;;;;9.27;5.88;;;;;;;15.41;86.94;101396.25;5035733;28;20120;-77
2021/06/28 01:25:49;;;;;;;11.77;7.35;;;;;;;15.38;87.77;101398.28;5049429;28;20030;-79
2021/06/28 01:28:15;;;;;;;10.45;7.10;;;;;;;15.35;87.74;101393.94;5047730;28;20025;-79
2021/06/28 01:30:40;;;;;;;10.05;8.00;;;;;;;15.32;88.01;101397.72;5028391;28;20022;-77
2021/06/28 01:33:06;;;;;;;10.95;8.20;;;;;;;15.32;87.90;101392.31;5048499;28;20108;-78
2021/06/28 01:35:31;;;;;;;10.30;7.80;;;;;;;15.28;88.08;101389.91;5031190;28;20487;-78
2021/06/28 01:37:57;;;;;;;11.98;8.70;;;;;;;15.26;88.42;101391.84;5035581;28;20032;-78
2021/06/28 01:40:22;;;;;;;11.10;7.97;;;;;;;15.25;88.57;101392.84;5035106;28;20380;-77
2021/06/28 01:42:48;;;;;;;13.68;9.20;;;;;;;15.36;89.31;101403.78;5019788;28;20420;-77
2021/06/28 01:45:20;;;;;;;14.48;8.85;;;;;;;15.38;89.23;101393.72;5032207;28;20025;-76
2021/06/28 01:47:46;;;;;;;14.25;8.40;;;;;;;15.36;88.79;101399.25;5032314;28;20477;-76
2021/06/28 01:50:12;;;;;;;12.93;8.23;;;;;;;15.29;89.24;101403.38;5032197;28;20040;-79
2021/06/28 01:52:39;;;;;;;13.45;10.43;;;;;;;15.32;89.64;101395.03;5031928;28;20029;-76
2021/06/28 01:55:07;;;;;;;13.00;10.38;;;;;;;15.40;89.93;101399.03;5015702;28;20029;-76
2021/06/28 01:57:34;;;;;;;15.20;10.20;;;;;;;15.31;90.14;101397.81;5032100;28;20021;-75
2021/06/28 02:00:00;;;;;;;15.30;9.50;;;;;;;15.22;89.85;101390.31;5015715;28;20026;-79
2021/06/28 02:02:26;;;;;;;12.18;8.77;;;;;;;15.20;89.57;101392.25;5015809;28;20025;-77
2021/06/28 02:04:51;;;;;;;14.32;10.45;;;;;;;15.17;90.49;101385.22;5033314;28;20126;-78
2021/06/28 02:07:17;;;;;;;16.42;11.13;;;;;;;15.13;91.02;101376.47;5015629;28;20060;-76
2021/06/28 02:09:43;;;;;;;15.85;10.85;;;;;;;15.21;90.31;101388.59;5032500;28;20032;-79
2021/06/28 02:12:09;;;;;;;13.32;9.43;;;;;;;15.08;90.44;101372.31;5032026;28;20033;-79
2021/06/28 02:14:34;;;;;;;13.52;9.77;;;;;;;15.01;90.99;101369.16;5031920;28;20359;-76
2021/06/28 02:17:00;;;;;;;16.23;10.00;;;;;;;15.05;91.02;101367.97;5015373;28;20159;-74
2021/06/28 02:19:25;;;;;;;14.60;10.60;;;;;;;15.08;91.37;101378.59;5032004;28;20388;-79
2021/06/28 02:21:51;;;;;;;14.52;10.57;;;;;;;15.03;90.92;101369.06;5032030;28;20033;-77
2021/06/28 02:24:16;;;;;;;16.83;10.63;;;;;;;15.00;91.45;101363.84;5015319;28;20037;-76
2021/06/28 02:26:42;;;;;;;18.00;12.82;;;;;;;14.94;91.01;101366.00;5031845;28;20026;-76
2021/06/28 02:29:08;;;;;;;16.20;11.05;;;;;;;14.92;91.98;101362.53;5015355;28;20036;-76
2021/06/28 02:31:33;;;;;;;15.57;10.68;;;;;;;14.87;91.98;101366.50;5035103;28;20030;-78
2021/06/28 02:33:59;;;;;;;14.38;10.52;;;;;;;14.81;91.72;101366.94;5025506;28;20078;-76
2021/06/28 02:36:26;;;;;;;16.20;10.40;;;;;;;14.80;91.75;101366.03;5038902;28;20103;-80
2021/06/28 02:38:53;;;;;;;14.10;10.30;;;;;;;14.81;91.51;101362.38;5056929;28;20100;-79
2021/06/28 02:41:19;;;;;;;14.88;10.60;;;;;;;14.80;92.36;101365.19;5055296;28;20068;-76
2021/06/28 02:43:44;;;;;;;15.77;11.15;;;;;;;14.77;91.65;101365.38;5036700;28;20084;-77
2021/06/28 02:46:11;;;;;;;15.32;10.60;;;;;;;14.67;92.40;101352.47;5035392;28;20037;-76
2021/06/28 02:48:40;;;;;;;14.40;10.27;;;;;;;14.67;92.26;101357.03;5021756;28;20159;-80
2021/06/28 02:51:07;;;;;;;14.57;10.38;;;;;;;14.68;92.33;101358.75;5035467;28;20764;-80
2021/06/28 02:53:33;;;;;;;14.55;10.90;;;;;;;14.68;92.07;101356.03;5055147;28;20037;-76
2021/06/28 02:56:13;;;;;;;14.10;10.23;;;;;;;14.61;92.77;101346.59;5056393;28;20461;-75
2021/06/28 02:58:44;;;;;;;17.27;11.00;;;;;;;14.68;92.28;101359.59;5040657;28;20491;-75
2021/06/28 03:01:11;;;;;;;16.88;11.10;;;;;;;14.65;93.20;101348.13;5038471;28;20035;-75
2021/06/28 03:03:36;;;;;;;17.83;11.52;;;;;;;14.66;93.14;101350.72;5038553;28;20028;-76
2021/06/28 03:06:02;;;;;;;15.07;10.05;;;;;;;14.64;92.68;101349.09;5038327;28;20120;-74
2021/06/28 03:08:27;;;;;;;13.30;10.05;;;;;;;14.58;92.16;101346.81;5055183;28;20377;-74
2021/06/28 03:10:53;;;;;;;14.80;10.57;;;;;;;14.60;93.14;101351.16;5055814;28;20067;-77
2021/06/28 03:13:18;;;;;;;13.50;9.77;;;;;;;14.63;92.73;101353.63;5054800;28;20029;-75
2021/06/28 03:15:43;;;;;;;14.85;10.57;;;;;;;14.63;93.70;101352.78;5038096;28;20059;-75
2021/06/28 03:18:09;;;;;;;14.43;11.15;;;;;;;14.63;93.02;101350.06;5046446;28;20532;-78
2021/06/28 03:20:35;;;;;;;14.27;10.10;;;;;;;14.70;93.27;101365.78;5034922;28;20079;-75
2021/06/28 03:23:00;;;;;;;15.10;11.15;;;;;;;14.71;92.62;101372.06;5018045;28;20029;-75
2021/06/28 03:25:25;;;;;;;17.55;11.40;;;;;;;14.70;92.42;101360.38;5021812;28;20021;-75
2021/06/28 03:27:51;;;;;;;18.33;13.70;;;;;;;14.75;92.98;101356.50;5054448;28;20021;-77
2021/06/28 03:30:17;;;;;;;16.20;11.00;;;;;;;14.80;92.81;101363.34;5037687;28;20032;-75
2021/06/28 03:32:44;;;;;;;15.63;10.88;;;;;;;14.86;92.46;101362.94;5055634;28;20029;-75
2021/06/28 03:35:09;;;;;;;;;;;;;;;14.93;92.17;101361.56;5035672;28;20029;-77
2021/06/28 03:37:35;;;;;;;16.58;12.13;;;;;;;14.96;92.69;101367.72;5034383;28;19924;-78
2021/06/28 03:40:00;;;;;;;18.02;11.77;;;;;;;14.97;91.96;101370.34;5034997;28;20102;-75
2021/06/28 03:42:25;;;;;;;14.80;10.73;;;;;;;15.05;91.85;101372.53;5034182;28;20100;-76
2021/06/28 03:44:51;;;;;;;16.13;10.52;;;;;;;15.05;91.76;101372.53;5034417;28;20101;-77
2021/06/28 03:47:16;;;;;;;18.90;12.30;;;;;;;15.11;92.04;101362.16;5017936;28;20045;-75
2021/06/28 03:49:41;;;;;;;17.55;12.02;;;;;;;15.21;91.96;101375.06;5034270;28;20037;-75
2021/06/28 03:52:07;;;;;;;16.48;11.80;;;;;;;15.28;91.11;101363.72;5033921;28;20029;-75
2021/06/28 03:54:32;;;;;;;14.60;11.27;;;;;;;15.30;91.54;101372.59;5017412;28;20052;-76
2021/06/28 03:56:58;;;;;;;14.75;10.60;;;;;;;15.33;91.60;101377.78;5022940;28;20388;-76
2021/06/28 03:59:23;;;;;;;13.80;10.65;;;;;;;15.35;91.54;101367.72;5037329;28;20040;-78
2021/06/28 04:01:48;;;;;;;16.73;11.82;;;;;;;15.50;90.97;101379.34;5054054;28;20468;-78
2021/06/28 04:04:14;;;;;;;18.50;13.15;;;;;;;15.59;90.88;101372.41;5037421;28;20027;-76
2021/06/28 04:06:39;;;;;;;19.70;11.95;;;;;;;15.66;91.35;101368.31;5053982;28;20032;-78
2021/06/28 04:09:05;;;;;;;13.85;10.15;;;;;;;15.75;90.60;101361.41;5037261;28;20516;-75
2021/06/28 04:11:30;;;;;;;14.63;11.00;;;;;;;15.86;90.27;101364.22;5025977;28;20121;-75
2021/06/28 04:13:57;;;;;;;16.25;11.40;;;;;;;15.94;89.93;101355.53;5033913;28;20028;-75
2021/06/28 04:16:22;;;;;;;16.80;11.13;;;;;;;16.08;89.10;101357.28;5033683;28;20436;-78
2021/06/28 04:18:47;;;;;;;15.15;11.75;;;;;;;16.20;89.11;101368.13;5033307;28;20029;-75
2021/06/28 04:21:13;;;;;;;16.83;12.05;;;;;;;16.36;88.80;101369.69;5033292;28;20066;-78
2021/06/28 04:23:38;;;;;;;15.88;10.68;;;;;;;16.45;88.19;101360.88;5031933;28;20544;-76
2021/06/28 04:26:03;;;;;;;15.90;11.65;;;;;;;16.55;87.61;101351.09;5054490;28;20028;-78
2021/06/28 04:28:29;;;;;;;16.60;11.65;;;;;;;16.70;86.57;101359.94;5037246;28;20025;-76
2021/06/28 04:30:55;;;;;;;14.43;9.93;;;;;;;16.86;86.18;101362.41;5053270;28;20033;-75
2021/06/28 04:33:20;;;;;;;16.48;10.23;;;;;;;16.97;86.13;101348.91;5036749;28;20067;-75
2021/06/28 04:35:45;;;;;;;17.30;10.68;;;;;;;17.18;85.40;101362.69;5036647;28;20049;-75
2021/06/28 04:38:11;;;;;;;13.82;10.35;;;;;;;17.28;84.82;101349.25;5053456;28;20056;-75
2021/06/28 04:40:36;;;;;;;16.10;10.82;;;;;;;17.38;84.90;101349.41;5054220;28;20100;-77
2021/06/28 04:43:03;;;;;;;17.15;11.25;;;;;;;17.55;83.63;101350.81;5034620;28;20025;-76
2021/06/28 04:45:28;;;;;;;14.37;10.27;;;;;;;17.72;83.20;101347.63;5048286;28;20032;-76
2021/06/28 04:47:54;;;;;;;17.17;11.25;;;;;;;17.81;82.82;101355.09;5052721;28;20274;-77
2021/06/28 04:50:23;;;;;;;18.17;10.57;;;;;;;17.86;82.26;101343.84;5052873;28;20108;-77
2021/06/28 04:52:51;;;;;;;13.57;9.93;;;;;;;17.95;81.96;101354.00;5035929;28;20150;-75
2021/06/28 04:55:17;;;;;;;16.63;9.98;;;;;;;18.05;81.46;101343.25;5022377;28;20026;-75
2021/06/28 04:57:44;;;;;;;15.02;9.80;;;;;;;18.23;80.81;101349.91;5033227;28;20032;-77
2021/06/28 05:00:10;;;;;;;;;;;;;;;18.35;80.60;101347.19;5016923;28;20026;-77
2021/06/28 05:02:36;;;;;;;18.02;11.23;;;;;;;18.39;80.19;101351.41;5032577;28;19913;-77
2021/06/28 05:05:01;;;;;;;15.15;11.27;;;;;;;18.37;78.83;101337.03;5032884;28;20022;-75
2021/06/28 05:07:26;;;;;;;16.65;11.45;;;;;;;18.45;78.82;101348.16;5016525;28;20350;-74
2021/06/28 05:09:52;;;;;;;18.63;10.23;;;;;;;18.61;79.16;101351.34;5032895;28;20048;-76
2021/06/28 05:12:17;;;;;;;14.70;10.18;;;;;;;18.64;78.89;101347.53;5032823;28;20448;-75
2021/06/28 05:14:43;;;;;;;14.40;9.13;;;;;;;18.73;77.70;101333.13;5016217;28;20473;-75
2021/06/28 05:17:09;;;;;;;14.85;10.38;;;;;;;18.79;77.22;101345.41;5033019;28;20025;-75
2021/06/28 05:19:35;;;;;;;12.57;9.63;;;;;;;18.98;78.15;101334.66;5039758;28;20045;-74
2021/06/28 05:22:00;;;;;;;13.80;9.00;;;;;;;19.16;77.52;101342.28;5035708;28;20029;-75
2021/06/28 05:24:25;;;;;;;12.93;8.80;;;;;;;19.27;75.86;101348.53;5052578;28;20048;-76
2021/06/28 05:26:51;;;;;;;13.23;9.93;;;;;;;19.14;75.59;101335.09;5035896;28;20024;-75
2021/06/28 05:29:16;;;;;;;11.38;8.05;;;;;;;19.42;76.01;101340.03;5053693;28;20025;-76
2021/06/28 05:31:42;;;;;;;11.43;8.93;;;;;;;19.66;76.30;101343.38;5035856;28;20025;-78
2021/06/28 05:34:07;;;;;;;15.38;10.13;;;;;;;19.77;73.33;101339.72;5052319;28;20026;-76
2021/06/28 05:36:33;;;;;;;11.10;8.45;;;;;;;20.00;72.79;101340.41;5052054;28;20076;-78
2021/06/28 05:38:59;;;;;;;12.63;9.25;;;;;;;20.14;72.63;101339.19;5032371;28;20032;-75
2021/06/28 05:41:24;;;;;;;14.90;8.60;;;;;;;20.23;71.30;101330.16;5032288;28;20038;-75
2021/06/28 05:43:50;;;;;;;12.82;9.05;;;;;;;20.52;70.57;101332.13;5032592;28;20036;-76
2021/06/28 05:46:15;;;;;;;12.05;8.82;;;;;;;20.83;70.14;101337.53;5033647;28;20034;-76
2021/06/28 05:48:41;;;;;;;14.00;8.55;;;;;;;21.09;68.20;101333.22;5032266;28;20044;-76
2021/06/28 05:51:06;;;;;;;12.07;8.35;;;;;;;21.55;66.75;101322.56;5032277;28;20076;-78
2021/06/28 05:53:33;;;;;;;9.68;6.90;;;;;;;22.08;64.92;101334.78;5048971;28;20366;-76
2021/06/28 05:55:58;;;;;;;11.70;7.22;;;;;;;22.65;62.02;101336.38;5032386;28;20048;-76
2021/06/28 05:58:26;;;;;;;9.95;6.85;;;;;;;23.14;61.49;101333.31;5032352;28;20029;-76
2021/06/28 06:00:52;;;;;;;10.13;6.82;;;;;;;23.34;59.53;101341.34;5034172;28;20044;-80
2021/06/28 06:03:18;;;;;;;11.13;7.10;;;;;;;23.39;58.25;101341.72;5051992;28;20496;-79
2021/06/28 06:05:43;;;;;;;9.73;6.93;;;;;;;23.26;58.06;101334.78;5038939;28;20369;-76
2021/06/28 06:08:08;;;;;;;14.18;8.05;;;;;;;22.93;57.63;101338.19;5039452;28;20048;-75
2021/06/28 06:10:33;;;;;;;9.40;6.53;;;;;;;22.92;58.98;101333.75;5055657;28;20109;-76
2021/06/28 06:12:59;;;;;;;9.70;6.83;;;;;;;23.26;56.93;101336.66;5039281;28;20518;-75
2021/06/28 06:15:24;;;;;;;9.93;7.90;;;;;;;23.04;58.43;101333.38;5057001;28;20034;-75
2021/06/28 06:17:50;;;;;;;11.70;7.63;;;;;;;23.18;59.65;101337.44;5035768;28;20025;-76
2021/06/28 06:20:15;;;;;;;11.45;7.13;;;;;;;23.24;56.67;101341.44;5035706;28;20026;-80
2021/06/28 06:22:41;;;;;;;11.67;7.53;;;;;;;23.29;57.28;101350.91;5035880;28;20033;-77
2021/06/28 06:25:07;;;;;;;9.87;6.67;;;;;;;23.58;57.01;101335.19;5047690;28;20060;-79
2021/06/28 06:27:32;;;;;;;10.27;6.63;;;;;;;24.05;54.37;101341.19;5038561;28;20025;-80
2021/06/28 06:29:58;;;;;;;9.03;6.13;;;;;;;24.39;55.99;101347.69;5038983;28;20475;-76
2021/06/28 06:32:23;;;;;;;11.73;6.63;;;;;;;24.88;53.42;101340.50;5055642;28;20029;-78
2021/06/28 06:34:49;;;;;;;8.70;6.00;;;;;;;25.87;49.40;101348.78;5038872;28;20460;-78
2021/06/28 06:37:15;;;;;;;8.63;5.20;;;;;;;27.27;45.81;101345.19;5035843;28;20053;-87
2021/06/28 06:39:41;;;;;;;11.27;5.68;;;;;;;28.15;43.06;101341.94;5033092;28;20013;-79
2021/06/28 06:42:06;;;;;;;10.90;6.00;;;;;;;29.40;37.35;101347.25;5055270;28;20044;-81
2021/06/28 06:44:31;;;;;;;9.70;5.50;;;;;;;30.11;36.92;101338.03;5038996;28;20017;-80
2021/06/28 06:46:57;;;;;;;10.03;5.60;;;;;;;31.93;32.50;101342.72;5035851;28;20020;-80
2021/06/28 06:49:22;;;;;;;7.60;4.83;;;;;;;32.44;31.55;101335.53;5038988;28;20060;-82
2021/06/28 06:51:47;;;;;;;12.43;5.70;;;;;;;32.65;31.83;101351.09;5055349;28;20025;-81
2021/06/28 06:54:13;;;;;;;11.87;5.70;;;;;;;32.49;30.94;101344.06;5038779;28;20120;-81
2021/06/28 06:56:39;;;;;;;9.05;5.00;;;;;;;31.99;31.75;101344.66;5055579;28;20025;-83
2021/06/28 06:59:04;;;;;;;14.00;4.65;;;;;;;34.16;29.55;101335.38;5038725;28;20025;-81
2021/06/28 07:01:33;;;;;;;10.27;4.03;;;;;;;34.17;27.86;101337.09;5038035;28;20036;-83
2021/06/28 07:03:59;;;;;;;8.00;4.75;;;;;;;35.08;26.59;101343.63;5055174;28;20052;-82
2021/06/28 07:06:24;;;;;;;7.75;4.18;;;;;;;36.71;24.50;101342.19;5055311;28;20056;-80
2021/06/28 07:08:50;;;;;;;7.50;3.87;;;;;;;35.33;25.92;101334.25;5056207;28;20116;-79
2021/06/28 07:11:15;;;;;;;8.30;4.50;;;;;;;34.67;26.65;101336.91;5054496;28;20036;-80
2021/06/28 07:13:49;;;;;;;10.17;4.27;;;;;;;35.56;25.39;101336.22;5054523;28;20071;-82
2021/06/28 07:16:15;;;;;;;8.85;4.40;;;;;;;35.01;25.34;101342.88;5053904;28;20025;-79
2021/06/28 07:18:40;;;;;;;7.82;4.40;;;;;;;33.63;27.42;101347.91;5034923;28;20028;-79
2021/06/28 07:21:06;;;;;;;9.43;3.93;;;;;;;34.42;25.87;101342.59;5053535;28;20087;-79
2021/06/28 07:23:31;;;;;;;7.33;3.77;;;;;;;34.52;26.91;101344.81;5055221;28;20064;-84
2021/06/28 07:25:57;;;;;;;6.40;2.93;;;;;;;35.31;25.57;101347.59;5038581;28;20059;-81
2021/06/28 07:28:23;;;;;;;6.32;3.60;;;;;;;36.36;22.37;101332.78;5054511;28;20033;-85
2021/06/28 07:30:48;;;;;;;8.10;4.00;;;;;;;35.72;24.95;101340.25;5049644;28;20022;-84
2021/06/28 07:33:13;;;;;;;8.80;3.40;;;;;;;36.64;23.74;101348.78;5034771;28;20037;-79
2021/06/28 07:35:39;;;;;;;6.87;3.93;;;;;;;35.45;24.09;101339.84;5034899;28;20025;-83
2021/06/28 07:38:04;;;;;;;10.00;3.53;;;;;;;36.09;24.13;101343.66;5049949;28;20032;-82
2021/06/28 07:40:29;;;;;;;7.37;3.83;;;;;;;37.15;22.15;101345.31;5038341;28;20063;-81
2021/06/28 07:42:55;;;;;;;6.53;3.87;;;;;;;35.29;25.19;101347.84;5054485;28;20032;-85
2021/06/28 07:45:22;;;;;;;7.45;3.53;;;;;;;34.24;26.37;101342.59;5054544;28;20036;-86
2021/06/28 07:47:48;;;;;;;7.68;4.00;;;;;;;33.90;26.13;101348.50;5055967;28;20024;-82
2021/06/28 07:50:18;;;;;;;6.10;4.05;;;;;;;32.86;27.58;101352.69;5034369;28;20033;-81
2021/06/28 07:52:43;;;;;;;9.18;4.57;;;;;;;32.98;27.93;101341.69;5034281;28;20461;-81
2021/06/28 07:55:11;;;;;;;8.95;4.65;;;;;;;33.04;28.95;101343.59;5034584;28;20037;-80
2021/06/28 07:57:37;;;;;;;10.73;4.03;;;;;;;34.36;26.54;101340.72;5017690;28;20044;-77
2021/06/28 08:00:14;;;;;;;8.32;4.10;;;;;;;34.71;25.78;101337.31;5034378;28;20033;-80
2021/06/28 08:02:39;;;;;;;8.77;4.47;;;;;;;35.48;25.35;101340.22;5043732;28;20025;-76
2021/06/28 08:05:06;;;;;;;9.13;4.23;;;;;;;36.75;23.68;101323.81;5036935;28;20017;-78
2021/06/28 08:07:31;;;;;;;6.63;4.00;;;;;;;38.74;20.95;101328.91;5036786;28;20090;-79
2021/06/28 08:09:57;;;;;;;10.53;4.40;;;;;;;38.83;19.75;101318.91;5053485;28;20512;-77
2021/06/28 08:12:22;;;;;;;8.10;4.70;;;;;;;38.98;19.46;101309.78;5019835;28;20120;-77
2021/06/28 08:14:47;;;;;;;7.45;4.75;;;;;;;39.75;19.50;101319.69;5049982;28;20032;-82
2021/06/28 08:17:13;;;;;;;9.77;4.37;;;;;;;40.52;18.02;101319.28;5053274;28;20544;-79
2021/06/28 08:19:42;;;;;;;;;;;;;;;43.84;13.99;101313.66;5054003;28;20757;-78
2021/06/28 08:22:07;;;;;;;8.75;3.53;;;;;;;43.04;15.37;101312.13;5053494;28;19955;-80
2021/06/28 08:24:32;;;;;;;6.87;3.40;;;;;;;41.40;16.80;101315.50;5036769;28;20064;-78
2021/06/28 08:26:58;;;;;;;7.57;3.60;;;;;;;41.49;16.01;101311.00;5036501;28;20302;-78
2021/06/28 08:29:23;;;;;;;7.17;4.03;;;;;;;42.83;14.71;101303.78;5052791;28;20352;-78
2021/06/28 08:31:48;;;;;;;6.85;3.92;;;;;;;44.84;12.78;101286.34;5038410;28;20369;-78
2021/06/28 08:34:14;;;;;;;6.60;3.70;;;;;;;45.62;12.41;101286.72;5033398;28;20092;-81
2021/06/28 08:36:41;;;;;;;5.75;3.30;;;;;;;46.22;12.71;101284.97;5033123;28;20494;-77
2021/06/28 08:39:07;;;;;;;4.88;3.10;;;;;;;45.80;12.77;101299.13;5033061;28;20026;-81
2021/06/28 08:41:33;;;;;;;5.97;3.38;;;;;;;45.23;12.84;101299.31;5033250;28;20031;-78
2021/06/28 08:43:58;;;;;;;5.38;3.47;;;;;;;44.42;13.46;101292.88;5049079;28;20025;-80
2021/06/28 08:46:23;;;;;;;6.47;3.42;;;;;;;45.59;12.71;101292.19;5036422;28;20032;-78
2021/06/28 08:48:49;;;;;;;5.28;3.38;;;;;;;46.47;12.65;101280.69;5048171;28;20021;-78
2021/06/28 08:51:15;;;;;;;5.23;3.40;;;;;;;47.28;11.54;101292.13;5034140;28;20152;-81
2021/06/28 08:53:40;;;;;;;7.45;4.05;;;;;;;46.84;11.21;101288.09;5033214;28;20274;-78
2021/06/28 08:56:09;;;;;;;5.63;3.10;;;;;;;46.72;11.52;101282.09;5016367;28;20049;-77
2021/06/28 08:58:37;;;;;;;5.80;3.65;;;;;;;45.57;12.95;101281.13;5032961;28;20029;-77
2021/06/28 09:01:04;;;;;;;7.80;3.78;;;;;;;43.18;15.11;101278.38;5050646;28;20108;-77
2021/06/28 09:03:29;;;;;;;6.97;3.45;;;;;;;43.65;14.22;101280.47;5036192;28;20124;-77
2021/06/28 09:06:01;;;;;;;5.00;3.28;;;;;;;45.52;12.31;101270.72;5052595;28;20443;-77
2021/06/28 09:08:27;;;;;;;5.05;3.08;;;;;;;45.44;12.45;101267.75;5032933;28;20033;-79
2021/06/28 09:10:53;;;;;;;7.05;3.53;;;;;;;47.69;11.22;101270.25;5032613;28;20392;-78
2021/06/28 09:13:35;;;;;;;5.97;4.00;;;;;;;46.17;12.07;101272.53;5032659;28;20032;-85
2021/06/28 09:16:18;;;;;;;5.60;3.47;;;;;;;47.03;11.07;101275.69;5033168;28;20057;-78
2021/06/28 09:18:56;;;;;;;8.82;3.50;;;;;;;49.16;10.16;101272.50;5016485;28;20025;-82
2021/06/28 09:21:33;;;;;;;6.18;3.22;;;;;;;50.06;9.42;101271.50;5040916;28;20036;-78
2021/06/28 09:24:00;;;;;;;6.45;3.70;;;;;;;49.64;9.01;101265.63;5047608;28;20487;-81
2021/06/28 09:26:37;;;;;;;4.40;3.30;;;;;;;49.47;8.77;101269.41;5035973;28;20502;-83
2021/06/28 09:29:08;;;;;;;5.72;3.70;;;;;;;45.61;11.68;101273.69;5035450;28;20025;-82
2021/06/28 09:31:43;;;;;;;5.60;3.22;;;;;;;48.67;9.93;101271.84;5052400;28;20103;-78
2021/06/28 09:34:21;;;;;;;6.88;4.13;;;;;;;48.48;9.80;101272.16;5021730;28;20025;-80
2021/06/28 09:36:54;;;;;;;6.18;3.63;;;;;;;45.02;13.17;101266.78;5032327;28;20053;-80
2021/06/28 09:39:27;;;;;;;7.15;3.67;;;;;;;48.24;10.68;101275.50;5051820;28;20025;-78
2021/06/28 09:42:06;;;;;;;5.97;3.65;;;;;;;49.75;8.97;101257.56;5052159;28;20040;-79
2021/06/28 09:44:31;;;;;;;4.93;3.20;;;;;;;49.49;9.22;101258.50;5052291;28;20461;-80
2021/06/28 09:47:15;;;;;;;5.32;3.35;;;;;;;50.10;8.57;101260.25;5034507;28;20019;-82
2021/06/28 09:50:03;;;;;;;8.00;3.47;;;;;;;50.61;8.36;101260.22;5042090;28;20104;-79
2021/06/28 09:52:37;;;;;;;6.93;3.53;;;;;;;50.72;8.01;101256.59;5051797;28;20120;-81
2021/06/28 09:55:23;;;;;;;7.53;4.10;;;;;;;49.70;8.77;101261.44;5015839;28;20029;-81
2021/06/28 09:58:08;;;;;;;6.00;3.30;;;;;;;50.16;8.65;101258.00;5032123;28;20542;-82
2021/06/28 10:00:35;;;;;;;5.93;3.17;;;;;;;47.81;9.98;101267.59;5041635;28;20052;-80
2021/06/28 10:03:02;;;;;;;7.47;3.45;;;;;;;45.59;11.52;101255.31;5035120;28;20033;-80
2021/06/28 10:05:34;;;;;;;6.60;3.10;;;;;;;50.03;8.18;101259.94;5041622;28;20029;-80
2021/06/28 10:07:59;;;;;;;4.80;3.53;;;;;;;49.70;8.85;101246.34;5036176;28;20120;-79
2021/06/28 10:10:30;;;;;;;6.22;3.53;;;;;;;51.36;7.58;101254.41;5035125;28;20539;-76
2021/06/28 10:12:55;;;;;;;4.75;3.30;;;;;;;52.12;6.94;101260.72;5050691;28;20072;-79
2021/06/28 10:15:22;;;;;;;6.63;3.50;;;;;;;50.24;8.36;101243.66;5054152;28;20467;-78
2021/06/28 10:17:48;;;;;;;7.10;4.00;;;;;;;49.33;8.96;101256.53;5034853;28;20741;-78
2021/06/28 10:20:16;;;;;;;5.10;3.25;;;;;;;49.53;8.34;101250.06;5034784;28;20020;-79
2021/06/28 10:22:43;;;;;;;9.90;4.15;;;;;;;49.30;8.85;101255.22;5022077;28;20037;-77
2021/06/28 10:25:10;;;;;;;6.82;3.83;;;;;;;50.01;8.89;101250.84;5047052;28;20461;-78
2021/06/28 10:27:36;;;;;;;9.45;3.70;;;;;;;50.14;8.82;101249.81;5015006;28;20021;-78
2021/06/28 10:30:06;;;;;;;5.13;3.83;;;;;;;51.41;7.43;101237.03;5014944;28;20021;-79
2021/06/28 10:32:31;;;;;;;5.93;3.13;;;;;;;51.22;7.90;101239.63;5027028;28;20079;-79
2021/06/28 10:34:57;;;;;;;4.97;3.10;;;;;;;52.75;7.18;101235.22;5051578;28;20021;-78
2021/06/28 10:37:37;;;;;;;4.75;3.45;;;;;;;53.41;7.21;101236.66;5051492;28;20045;-79
2021/06/28 10:40:07;;;;;;;8.95;3.60;;;;;;;51.33;7.88;101237.97;5034945;28;20025;-78
2021/06/28 10:42:39;;;;;;;6.53;3.22;;;;;;;52.94;6.42;101242.28;5052649;28;20021;-80
2021/06/28 10:45:07;;;;;;;6.10;3.20;;;;;;;53.74;5.94;101241.19;5034467;28;20476;-78
2021/06/28 10:47:32;;;;;;;4.03;3.00;;;;;;;52.91;6.68;101240.16;5039481;28;20376;-77
2021/06/28 10:49:58;;;;;;;4.00;2.70;;;;;;;50.11;7.38;101241.91;5051220;28;20025;-77
2021/06/28 10:52:38;;;;;;;4.65;3.05;;;;;;;51.64;6.86;101246.00;5048090;28;20031;-79
2021/06/28 10:55:13;;;;;;;4.50;3.03;;;;;;;51.35;7.31;101245.00;5035047;28;20033;-78
2021/06/28 10:57:39;;;;;;;5.80;2.95;;;;;;;50.20;7.61;101244.69;5041549;28;20035;-80
2021/06/28 11:00:05;;;;;;;5.60;3.05;;;;;;;47.92;9.24;101243.38;5054590;28;20025;-80
2021/06/28 11:02:37;;;;;;;4.43;3.17;;;;;;;48.35;9.07;101236.97;5032468;28;20378;-77
2021/06/28 11:05:04;;;;;;;5.05;3.28;;;;;;;46.42;10.35;101239.06;5036520;28;20021;-79
2021/06/28 11:07:44;;;;;;;4.57;2.85;;;;;;;43.86;11.63;101232.13;5037071;28;20029;-77
2021/06/28 11:10:14;;;;;;;4.85;3.10;;;;;;;41.91;13.76;101244.06;5054890;28;20029;-77
2021/06/28 11:12:39;;;;;;;3.70;2.65;;;;;;;40.45;15.37;101237.91;5037990;28;20017;-77
2021/06/28 11:15:29;;;;;;;5.45;2.60;;;;;;;39.70;15.34;101229.69;5041006;28;20037;-80
2021/06/28 11:17:55;;;;;;;5.47;3.10;;;;;;;38.03;17.90;101228.69;5027121;28;20082;-79
2021/06/28 11:20:20;;;;;;;;;;;;;;;37.10;18.62;101230.38;5055810;28;20027;-77